846  
UXUS97 KREV 111336  
SRGREV  
 
SOARING FORECAST  
NATIONAL WEATHER SERVICE - RENO NV  
700 AM PDT SUN APR 11 2021  
 
THIS SOARING FORECAST IS FOR THE EASTERN SIERRA AND WESTERN NEVADA  
WITH SPECIFIC INDICES FOR THE GREATER RENO AREA.  
 
THIS FORECAST IS PREPARED DAILY BY 700 AM AND IS NOT UPDATED.  
 
FOR CURRENT FLIGHT CONDITIONS...FORECASTS...AND ADVISORIES...ACCESS  
YOUR LOCAL BRIEFING OUTLET OR FLIGHT SERVICE STATION.  
 
*******************************************************************  
FORECASTED LOCAL INDICES FOR RENO: TODAY YESTERDAY  
FORECASTED MAX TEMP AT RENO (DEG F)..... 69 74  
FORECASTED TRIGGER TEMPERATURE (DEG F).. 57 56  
EXCEEDED YESTERDAY BY 1055 AM PDT  
FORECASTED MAXIMUM ALTITUDE (FT MSL).... 12500 17200  
FORECASTED SOARING INDEX (FPM).......... 525 1026  
FORECASTED K-INDEX.........VALID 18Z.... 5 5  
FORECASTED K-INDEX.........VALID 00Z.... 17 14  
FORECASTED LIFTED INDEX....VALID 18Z.... 8 6  
FORECASTED LIFTED INDEX....VALID 00Z.... 4 3  
 
AFTERNOON WINDS ALOFT FORECAST  
MSL (FT) WIND/TEMP  
9000 3106/+03  
10000 2910/+01  
12000 2817/-02  
14000 2818/-06  
16000 2919/-10  
18000 3023/-15  
24000 2825/-28  
30000 2843/-43  
34000 2743/-53  
39000 2840/-60  
 
SLIDE MOUNTAIN DATA:  
DATE TIME TEMP DEWPT RH WIND (MPH)  
(F) (F) | DIR SPEED GUST  
2021-04-11 05:30 34 5 16 | 300 2 5  
2021-04-11 05:20 34 6 17 | 351 2 7  
2021-04-11 05:00 34 6 17 | 329 3 9  
2021-04-11 04:50 35 7 17 | 358 8 15  
 
SIERRA CREST 8700 FT DATA:  
DATE TIME TEMP RH WIND  
DIR SPEED GUST  
2021-04-11 0600 39 16 010 7 9  
2021-04-11 0545 39 16 065 9 11  
2021-04-11 0530 40 15 049 9 12  
2021-04-11 0515 39 17 013 9 12  
 
RENO TAF FORECAST:  
KRNO 111120Z 1112/1212 VRB04KT P6SM SKC  
FM111700 05006KT P6SM SKC  
FM120200 34011KT P6SM SKC  
FM121000 VRB04KT P6SM SCT250  
 
MINDEN TAF FORECAST:  
KMEV 111120Z 1112/1212 11006KT P6SM SKC  
FM111800 02007KT P6SM SKC  
FM120400 12006KT P6SM SKC  
 
OUTLOOK FOR THE RENO-CARSON CITY-MINDEN AREA:   
MONDAY
 
PARTLY CLOUDY IN THE MORNING THEN BECOMING SUNNY. HIGHS  
65 TO 70. NORTHEAST WINDS 10 TO 15 MPH.  
 
SUNRISE AND SUNSET  
APRIL 11 2021.........SUNRISE 627 AM PDT SUNSET 733 PM PDT  
APRIL 12 2021.........SUNRISE 626 AM PDT SUNSET 734 PM PDT  
 
CLICK HERE TO GO TO PREVIOUS BULLETINS.

The Nexlab NV Page
The Nexlab CA Page Main Text Page